No particular awareness of the weather is required.    There are no Weather-warnings


Meteo18 Weather Cam more information Meteo18 Weather Cam


Thunder radar more information blitzortung!


Rain radar more information rain snow radar


Visit our other weather sites:

Template documentation
and downloads

And another site



Weather Underground History page Text

Daily Summary for June 23, 2017 Units:  English    Metric   Both
« Previous Day
Next Day »
Daily Weekly Monthly Yearly Custom
  High: Low: Average:
Temperature: 78.4 °F 65.8 °F 71.8 °F
Dew Point: 64.2 °F 59.9 °F 62.1 °F
Humidity: 86 % 55 % 72 %
Wind Speed: 10 mph 0 mph 1.9 mph
Wind Gust: 13 mph - -
Wind:- - West
Pressure: 30.2 in 30 in -
Precipitation: 0 in    
Historical Graphs
 
 
Tabular Data for June 23, 2017
Time Temperature Dew Point Pressure Wind Wind Speed Wind Gust Humidity Rainfall Rate (Hourly)
00:02 74.7 °F 60.8 °F 30 in SSW 1 mph 2 mph 62 % 0 in
00:12 74.7 °F 60.3 °F 30 in Calm   2 mph 61 % 0 in
00:17 74.7 °F 60.3 °F 30 in Calm   2 mph 61 % 0 in
00:22 74.5 °F 60.1 °F 30 in Calm   1 mph 61 % 0 in
00:27 74.5 °F 60.1 °F 30 in Calm   1 mph 61 % 0 in
00:32 74.3 °F 59.9 °F 30 in Calm     61 % 0 in
00:37 73.9 °F 60.1 °F 30 in Calm     62 % 0 in
00:42 73.6 °F 60.3 °F 30 in Calm   2 mph 63 % 0 in
00:47 73.2 °F 60.3 °F 30 in Calm   1 mph 64 % 0 in
00:52 72.9 °F 59.9 °F 30 in Calm   1 mph 64 % 0 in
00:57 72.7 °F 60.3 °F 30 in Calm   1 mph 65 % 0 in
01:02 72.3 °F 60.3 °F 30 in Calm   1 mph 66 % 0 in
01:07 72.3 °F 60.3 °F 30 in Calm   1 mph 66 % 0 in
01:12 72.3 °F 60.3 °F 30 in Calm   1 mph 66 % 0 in
01:17 72.1 °F 60.1 °F 30 in Calm   1 mph 66 % 0 in
01:22 71.8 °F 60.3 °F 30 in Calm   1 mph 67 % 0 in
01:27 71.4 °F 60.3 °F 30 in Calm   1 mph 68 % 0 in
01:32 71.2 °F 60.1 °F 30 in Calm   1 mph 68 % 0 in
01:37 71.4 °F 60.3 °F 30 in Calm     68 % 0 in
01:42 71.8 °F 60.3 °F 30.1 in Calm     67 % 0 in
01:47 72.7 °F 60.3 °F 30.1 in Calm   1 mph 65 % 0 in
01:52 72.3 °F 59.9 °F 30.1 in Calm   1 mph 65 % 0 in
01:57 72.1 °F 60.1 °F 30.1 in West 1 mph 2 mph 66 % 0 in
02:02 72.1 °F 60.1 °F 30.1 in WNW 3 mph 3 mph 66 % 0 in
02:12 73 °F 61 °F 30.1 in WNW 1 mph 4 mph 66 % 0 in
02:17 73.2 °F 61.5 °F 30.1 in NW 2 mph 3 mph 67 % 0 in
02:22 73.2 °F 62.1 °F 30.1 in WNW 1 mph 3 mph 68 % 0 in
02:32 72.7 °F 61.9 °F 30.1 in Calm   3 mph 69 % 0 in
02:37 72 °F 62.1 °F 30.1 in Calm   2 mph 71 % 0 in
02:42 71.4 °F 61.5 °F 30.1 in Calm   2 mph 71 % 0 in
02:47 71.2 °F 61.7 °F 30.1 in Calm   1 mph 72 % 0 in
02:52 71.4 °F 62.8 °F 30.1 in Calm   1 mph 74 % 0 in
02:57 71.4 °F 63.1 °F 30.1 in Calm     75 % 0 in
03:02 71.6 °F 63.3 °F 30.1 in Calm     75 % 0 in
03:12 70.7 °F 62.1 °F 30.1 in Calm     74 % 0 in
03:17 70.3 °F 61.7 °F 30.1 in Calm     74 % 0 in
03:22 70.2 °F 61.9 °F 30.1 in Calm     75 % 0 in
03:32 69.4 °F 61.5 °F 30.1 in Calm     76 % 0 in
03:37 69.4 °F 62.2 °F 30.1 in Calm     78 % 0 in
03:42 69.4 °F 62.6 °F 30.1 in Calm     79 % 0 in
03:47 69.4 °F 62.6 °F 30.1 in Calm     79 % 0 in
03:52 69.4 °F 63 °F 30.1 in Calm     80 % 0 in
03:57 69.4 °F 63 °F 30.1 in Calm     80 % 0 in
04:02 69.1 °F 62.6 °F 30.1 in Calm     80 % 0 in
04:12 69.1 °F 63.3 °F 30.1 in Calm     82 % 0 in
04:17 69.1 °F 63.3 °F 30.1 in Calm     82 % 0 in
04:22 69.1 °F 63.7 °F 30.1 in Calm     83 % 0 in
04:32 69.3 °F 64.2 °F 30.1 in Calm     84 % 0 in
04:37 69.3 °F 63.9 °F 30.1 in Calm     83 % 0 in
04:42 69.3 °F 64.2 °F 30.1 in WNW 1 mph   84 % 0 in
04:47 69.1 °F 64 °F 30.1 in WNW 2 mph 6 mph 84 % 0 in
04:52 68.7 °F 64 °F 30.1 in Calm   6 mph 85 % 0 in
04:57 68.7 °F 64 °F 30.1 in North 1 mph 6 mph 85 % 0 in
05:02 68.7 °F 64 °F 30.1 in WNW 5 mph 6 mph 85 % 0 in
05:12 68.5 °F 63.9 °F 30.1 in WNW 2 mph 7 mph 85 % 0 in
05:17 68.5 °F 63.9 °F 30.1 in Calm   7 mph 85 % 0 in
05:22 68.4 °F 63.7 °F 30.1 in Calm   7 mph 85 % 0 in
05:32 68 °F 63.3 °F 30.1 in NW 2 mph 6 mph 85 % 0 in
05:42 67.6 °F 63 °F 30.1 in Calm   6 mph 85 % 0 in
05:47 67.5 °F 62.8 °F 30.1 in NW 1 mph 7 mph 85 % 0 in
05:52 67.3 °F 63 °F 30.1 in NNW 1 mph 7 mph 86 % 0 in
06:02 66.9 °F 62.6 °F 30.1 in NW 2 mph 7 mph 86 % 0 in
06:07 66.7 °F 62.4 °F 30.1 in WNW 6 mph 7 mph 86 % 0 in
06:12 66.6 °F 62.2 °F 30.1 in Calm   7 mph 86 % 0 in
06:17 66.6 °F 62.2 °F 30.1 in Calm   6 mph 86 % 0 in
06:27 66.2 °F 61.9 °F 30.1 in Calm   4 mph 86 % 0 in
06:32 66 °F 61.7 °F 30.1 in WNW 1 mph 4 mph 86 % 0 in
06:37 66 °F 61.7 °F 30.1 in Calm   4 mph 86 % 0 in
06:42 66 °F 61.3 °F 30.1 in NW 3 mph 4 mph 85 % 0 in
06:47 66.2 °F 61.5 °F 30.1 in Calm   6 mph 85 % 0 in
06:57 66.4 °F 61.3 °F 30.1 in Calm   6 mph 84 % 0 in
07:02 66.4 °F 61.3 °F 30.1 in North 2 mph 6 mph 84 % 0 in
07:12 66.6 °F 61.5 °F 30.1 in WNW 1 mph 4 mph 84 % 0 in
07:17 66.4 °F 61 °F 30.1 in West 1 mph 5 mph 83 % 0 in
07:22 66.4 °F 61.3 °F 30.1 in Calm   5 mph 84 % 0 in
07:32 66.6 °F 61.2 °F 30.1 in Calm   3 mph 83 % 0 in
07:42 66.9 °F 61 °F 30.1 in Calm   4 mph 81 % 0 in
07:47 67.3 °F 61.2 °F 30.1 in Calm   4 mph 81 % 0 in
07:52 67.5 °F 61.2 °F 30.1 in NNW 2 mph 4 mph 80 % 0 in
07:57 67.5 °F 61.2 °F 30.1 in Calm   3 mph 80 % 0 in
08:07 67.5 °F 61.2 °F 30.1 in Calm   3 mph 80 % 0 in
08:12 67.5 °F 60.8 °F 30.1 in Calm   3 mph 79 % 0 in
08:17 67.5 °F 61.2 °F 30.1 in Calm   3 mph 80 % 0 in
08:22 67.6 °F 61.2 °F 30.1 in Calm   3 mph 80 % 0 in
08:32 67.8 °F 61 °F 30.1 in Calm   3 mph 79 % 0 in
08:42 68.4 °F 61.5 °F 30.1 in ENE 1 mph 1 mph 79 % 0 in
08:52 68.4 °F 61.2 °F 30.2 in Calm   2 mph 78 % 0 in
08:57 68.5 °F 61 °F 30.2 in Calm   2 mph 77 % 0 in
09:02 68.5 °F 61.3 °F 30.2 in Calm   2 mph 78 % 0 in
09:12 69.1 °F 61.5 °F 30.2 in Calm   3 mph 77 % 0 in
09:17 69.3 °F 61.7 °F 30.2 in SW 1 mph 3 mph 77 % 0 in
09:22 69.1 °F 61.2 °F 30.2 in Calm   3 mph 76 % 0 in
09:27 69.1 °F 61.5 °F 30.2 in Calm   2 mph 77 % 0 in
09:32 69.1 °F 61.5 °F 30.2 in SSW 1 mph 2 mph 77 % 0 in
09:37 69.3 °F 61.7 °F 30.2 in Calm   2 mph 77 % 0 in
09:42 69.6 °F 61.7 °F 30.2 in SW 1 mph 2 mph 76 % 0 in
09:47 69.3 °F 61.7 °F 30.2 in Calm   2 mph 77 % 0 in
09:52 69.3 °F 61.7 °F 30.2 in Calm   2 mph 77 % 0 in
10:02 69.3 °F 61.7 °F 30.2 in West 1 mph 3 mph 77 % 0 in
10:07 69.3 °F 61.7 °F 30.2 in WSW 1 mph 3 mph 77 % 0 in
10:12 69.3 °F 62.1 °F 30.2 in SSW 1 mph 3 mph 78 % 0 in
10:17 69.3 °F 61.7 °F 30.2 in SSW 3 mph 4 mph 77 % 0 in
10:22 69.4 °F 61.9 °F 30.2 in WSW 3 mph 4 mph 77 % 0 in
10:32 69.8 °F 61.9 °F 30.2 in West 4 mph 4 mph 76 % 0 in
10:42 70.7 °F 62.1 °F 30.2 in West 1 mph 4 mph 74 % 0 in
10:47 70.9 °F 61.9 °F 30.2 in SW 1 mph 4 mph 73 % 0 in
10:52 71.1 °F 61.9 °F 30.2 in SW 1 mph 4 mph 73 % 0 in
10:57 71.2 °F 62.1 °F 30.2 in Calm   4 mph 73 % 0 in
11:02 71.6 °F 62.1 °F 30.2 in West 1 mph 4 mph 72 % 0 in
11:12 71.4 °F 62.2 °F 30.2 in West 1 mph 2 mph 73 % 0 in
11:17 71.2 °F 62.6 °F 30.2 in SSW 3 mph 4 mph 74 % 0 in
11:22 71.1 °F 62.8 °F 30.2 in SW 3 mph 4 mph 75 % 0 in
11:32 71.2 °F 63.3 °F 30.2 in Calm   6 mph 76 % 0 in
11:42 71.1 °F 62.8 °F 30.2 in WNW 2 mph 6 mph 75 % 0 in
11:47 71.1 °F 63.1 °F 30.2 in Calm   6 mph 76 % 0 in
11:52 71.2 °F 63.3 °F 30.2 in WSW 5 mph 6 mph 76 % 0 in
12:02 71.4 °F 63.5 °F 30.2 in WSW 3 mph 7 mph 76 % 0 in
12:12 71.8 °F 63.5 °F 30.2 in SW 2 mph 7 mph 75 % 0 in
12:17 72.1 °F 63.9 °F 30.2 in WNW 3 mph 8 mph 75 % 0 in
12:22 72.1 °F 63.3 °F 30.2 in WSW 7 mph 8 mph 74 % 0 in
12:27 72 °F 63.7 °F 30.2 in SW 8 mph 9 mph 75 % 0 in
12:32 72 °F 63.7 °F 30.2 in West 4 mph 9 mph 75 % 0 in
12:42 72.1 °F 63 °F 30.2 in West 5 mph 11 mph 73 % 0 in
12:47 72.3 °F 63.1 °F 30.2 in SW 5 mph 8 mph 73 % 0 in
12:52 72.5 °F 63 °F 30.2 in SW 4 mph 8 mph 72 % 0 in
13:02 72.3 °F 62.8 °F 30.2 in SW 6 mph 7 mph 72 % 0 in
13:07 72.5 °F 63.3 °F 30.2 in West 4 mph 11 mph 73 % 0 in
13:12 72.3 °F 63.1 °F 30.2 in WSW 5 mph 11 mph 73 % 0 in
13:17 72.3 °F 63.1 °F 30.2 in SW 8 mph 12 mph 73 % 0 in
13:22 72.3 °F 63.9 °F 30.2 in SW 10 mph 12 mph 75 % 0 in
13:32 71.6 °F 64 °F 30.2 in SW 5 mph 13 mph 77 % 0 in
13:42 71.4 °F 63.9 °F 30.2 in WSW 4 mph 13 mph 77 % 0 in
13:47 71.4 °F 64.2 °F 30.2 in WNW 5 mph 11 mph 78 % 0 in
13:52 71.1 °F 63.9 °F 30.2 in West 2 mph 11 mph 78 % 0 in
13:57 71.1 °F 64.2 °F 30.2 in WSW 4 mph 11 mph 79 % 0 in
14:02 70.9 °F 64 °F 30.2 in West 4 mph 11 mph 79 % 0 in
14:07 70.9 °F 64 °F 30.2 in West 2 mph 11 mph 79 % 0 in
14:12 70.9 °F 64 °F 30.2 in West 3 mph 11 mph 79 % 0 in
14:17 71.1 °F 63.9 °F 30.2 in West 7 mph 10 mph 78 % 0 in
14:22 70.7 °F 63.5 °F 30.2 in NNW 3 mph 10 mph 78 % 0 in
14:32 70.7 °F 63.5 °F 30.2 in WNW 3 mph 13 mph 78 % 0 in
14:37 70.5 °F 63.7 °F 30.2 in WSW 5 mph 11 mph 79 % 0 in
14:42 70.3 °F 63.5 °F 30.2 in West 10 mph 11 mph 79 % 0 in
14:52 70 °F 63.5 °F 30.2 in West 7 mph 11 mph 80 % 0 in
14:57 69.6 °F 63.1 °F 30.2 in WNW 6 mph 12 mph 80 % 0 in
15:02 69.8 °F 63.7 °F 30.2 in West 3 mph 12 mph 81 % 0 in
15:07 70.2 °F 63.7 °F 30.2 in WNW 5 mph 11 mph 80 % 0 in
15:12 70.3 °F 63.5 °F 30.2 in WNW 8 mph 11 mph 79 % 0 in
15:22 70.5 °F 63.7 °F 30.2 in WNW 4 mph 12 mph 79 % 0 in
15:27 70.7 °F 63.5 °F 30.2 in WNW 7 mph 11 mph 78 % 0 in
15:32 71.4 °F 63.9 °F 30.2 in Calm   11 mph 77 % 0 in
15:37 72 °F 64 °F 30.2 in WNW 3 mph 10 mph 76 % 0 in
15:42 72.3 °F 63.9 °F 30.2 in Calm   10 mph 75 % 0 in
15:47 73 °F 63.9 °F 30.2 in WNW 2 mph 11 mph 73 % 0 in
15:52 73 °F 63.1 °F 30.2 in NE 2 mph 11 mph 71 % 0 in
15:57 73.2 °F 63.7 °F 30.2 in WSW 3 mph 11 mph 72 % 0 in
16:02 73.8 °F 63.3 °F 30.2 in West 4 mph 11 mph 70 % 0 in
16:07 74.5 °F 63.7 °F 30.2 in WSW 5 mph 11 mph 69 % 0 in
16:12 74.5 °F 62.8 °F 30.2 in SSW 3 mph 11 mph 67 % 0 in
16:17 74.8 °F 62.8 °F 30.2 in WSW 2 mph 11 mph 66 % 0 in
16:22 75 °F 63 °F 30.2 in WSW 4 mph 11 mph 66 % 0 in
16:32 75.7 °F 62.2 °F 30.2 in SW 6 mph 9 mph 63 % 0 in
16:42 75.9 °F 62.4 °F 30.2 in SW 5 mph 11 mph 63 % 0 in
16:52 75.9 °F 62.8 °F 30.2 in West 2 mph 12 mph 64 % 0 in
16:57 76.3 °F 62.8 °F 30.2 in WNW 4 mph 10 mph 63 % 0 in
17:02 76.5 °F 62.4 °F 30.2 in West 3 mph 10 mph 62 % 0 in
17:12 76.5 °F 62.4 °F 30.2 in WSW 4 mph 8 mph 62 % 0 in
17:17 76.6 °F 63.1 °F 30.2 in WNW 3 mph 7 mph 63 % 0 in
17:22 76.8 °F 62.4 °F 30.2 in WSW 2 mph 7 mph 61 % 0 in
17:27 77.5 °F 62.6 °F 30.2 in WNW 8 mph 9 mph 60 % 0 in
17:32 77.9 °F 61.9 °F 30.2 in WSW 6 mph 9 mph 58 % 0 in
17:37 77.7 °F 62.2 °F 30.2 in SW 3 mph 13 mph 59 % 0 in
17:42 77.9 °F 61.5 °F 30.2 in South 2 mph 13 mph 57 % 0 in
17:52 78.4 °F 61.5 °F 30.2 in WNW 5 mph 11 mph 56 % 0 in
17:57 78.3 °F 61.3 °F 30.1 in SW 3 mph 11 mph 56 % 0 in
18:02 78.4 °F 61.5 °F 30.1 in WSW 3 mph 11 mph 56 % 0 in
18:07 78.1 °F 61.2 °F 30.1 in West 1 mph 12 mph 56 % 0 in
18:12 78.1 °F 61.5 °F 30.1 in WSW 4 mph 12 mph 57 % 0 in
18:17 78.3 °F 61.7 °F 30.1 in WNW 3 mph 12 mph 57 % 0 in
18:22 78.4 °F 61 °F 30.1 in WSW 10 mph 10 mph 55 % 0 in
18:27 78.1 °F 61.5 °F 30.1 in WNW 2 mph 9 mph 57 % 0 in
18:32 78.1 °F 61.5 °F 30.1 in WSW 3 mph 12 mph 57 % 0 in
18:37 77.7 °F 61.3 °F 30.1 in WSW 10 mph 12 mph 57 % 0 in
18:42 77.5 °F 61.5 °F 30.1 in WSW 2 mph 12 mph 58 % 0 in
18:52 77.5 °F 61.5 °F 30.1 in WSW 5 mph 12 mph 58 % 0 in
18:57 77.2 °F 61.3 °F 30.1 in SW 7 mph 11 mph 58 % 0 in
19:02 77 °F 62.1 °F 30.1 in SW 5 mph 11 mph 60 % 0 in
19:12 76.6 °F 61.7 °F 30.1 in SW 5 mph 11 mph 60 % 0 in
19:17 76.6 °F 61.7 °F 30.1 in SW 5 mph 9 mph 60 % 0 in
19:22 76.6 °F 62.2 °F 30.1 in SW 1 mph 9 mph 61 % 0 in
19:27 77 °F 62.1 °F 30.1 in WSW 4 mph 6 mph 60 % 0 in
19:32 77.5 °F 62.6 °F 30.1 in SSW 4 mph 6 mph 60 % 0 in
19:37 77.7 °F 62.2 °F 30.1 in WNW 1 mph 7 mph 59 % 0 in
19:42 78.3 °F 61.7 °F 30.1 in West 3 mph 7 mph 57 % 0 in
19:52 77.5 °F 61.5 °F 30.1 in NW 3 mph 9 mph 58 % 0 in
19:57 77.5 °F 61.5 °F 30.1 in WNW 3 mph 9 mph 58 % 0 in
20:02 77.7 °F 61.7 °F 30.1 in West 3 mph 9 mph 58 % 0 in
20:12 77.2 °F 61.7 °F 30.1 in West 1 mph 8 mph 59 % 0 in
20:17 76.8 °F 61.3 °F 30.2 in West 3 mph 7 mph 59 % 0 in
20:22 76.8 °F 61.9 °F 30.2 in WNW 2 mph 7 mph 60 % 0 in
20:27 76.8 °F 61.3 °F 30.2 in West 4 mph 6 mph 59 % 0 in
20:32 76.8 °F 61.9 °F 30.2 in WNW 2 mph 6 mph 60 % 0 in
20:42 76.6 °F 61.7 °F 30.2 in WNW 7 mph 7 mph 60 % 0 in
20:47 76.5 °F 61.5 °F 30.2 in WNW 6 mph 7 mph 60 % 0 in
20:52 76.6 °F 61.7 °F 30.2 in WNW 3 mph 7 mph 60 % 0 in
21:02 76.5 °F 62.1 °F 30.2 in Calm   7 mph 61 % 0 in
21:07 76.3 °F 61.9 °F 30.2 in Calm   3 mph 61 % 0 in
21:12 76.1 °F 62.1 °F 30.2 in Calm   3 mph 62 % 0 in
21:17 75.7 °F 61.9 °F 30.2 in Calm   2 mph 62 % 0 in
21:22 75.4 °F 61.5 °F 30.2 in Calm   2 mph 62 % 0 in
21:27 75 °F 61.5 °F 30.2 in Calm   1 mph 63 % 0 in
21:32 74.7 °F 61.7 °F 30.2 in Calm   1 mph 64 % 0 in
21:37 74.5 °F 61.5 °F 30.2 in Calm   1 mph 64 % 0 in
21:42 74.1 °F 61.5 °F 30.2 in Calm   1 mph 65 % 0 in
21:52 73.4 °F 61.7 °F 30.2 in Calm   1 mph 67 % 0 in
21:57 72.9 °F 61.3 °F 30.2 in Calm   1 mph 67 % 0 in
22:02 72.5 °F 61.3 °F 30.2 in Calm   1 mph 68 % 0 in
22:12 72 °F 61.7 °F 30.2 in WSW 1 mph 1 mph 70 % 0 in
22:17 71.6 °F 61.7 °F 30.2 in West 1 mph 1 mph 71 % 0 in
22:27 70.9 °F 61.3 °F 30.2 in Calm   1 mph 72 % 0 in
22:32 70.3 °F 61.3 °F 30.2 in Calm   1 mph 73 % 0 in
22:37 70.2 °F 61.5 °F 30.2 in Calm   1 mph 74 % 0 in
22:42 70 °F 61.3 °F 30.2 in Calm   1 mph 74 % 0 in
22:47 69.6 °F 61 °F 30.2 in Calm   1 mph 74 % 0 in
22:52 69.3 °F 61 °F 30.2 in Calm   1 mph 75 % 0 in
22:57 68.7 °F 60.4 °F 30.2 in Calm   1 mph 75 % 0 in
23:02 68.2 °F 60.3 °F 30.2 in Calm   1 mph 76 % 0 in
23:12 67.6 °F 60.6 °F 30.2 in Calm     78 % 0 in
23:17 67.3 °F 60.3 °F 30.2 in Calm     78 % 0 in
23:22 66.9 °F 60.3 °F 30.2 in Calm     79 % 0 in
23:32 66.4 °F 60.1 °F 30.2 in Calm     80 % 0 in
23:37 66.2 °F 59.9 °F 30.2 in Calm     80 % 0 in
23:42 66 °F 60.4 °F 30.2 in Calm     82 % 0 in
23:52 65.8 °F 60.3 °F 30.2 in Calm     82 % 0 in
23:57 65.8 °F 60.3 °F 30.2 in Calm     82 % 0 in
Meteo18
Compliments of Weather Underground - 4 mb

Script developed by  Jim McMurry - jmcmurry@mwt.net Adapted for the template by  Wim van der Kuil - Leuven-Template.eu

You find our weather info also at:

European Weather Network

Weather Underground

Equipment we use:

Weather-station
Davis Vue

Weather-program
Meteohub

Weather-server
Raspberry PI 2 B+

Provider
1 and 1

Davis Vue

Meteohub

Raspberry PI 2 B+

1 and 1